sensor_id;sensor_type;location;lat;lon;timestamp;temperature;humidity
9723;DHT22;4900;49.306;8.500;2023-03-05T00:00:35;5.48;68.40
9723;DHT22;4900;49.306;8.500;2023-03-05T00:03:01;5.47;68.41
9723;DHT22;4900;49.306;8.500;2023-03-05T00:05:26;5.48;68.31
9723;DHT22;4900;49.306;8.500;2023-03-05T00:07:52;5.44;68.45
9723;DHT22;4900;49.306;8.500;2023-03-05T00:10:17;5.48;68.43
9723;DHT22;4900;49.306;8.500;2023-03-05T00:12:43;5.48;68.42
9723;DHT22;4900;49.306;8.500;2023-03-05T00:15:08;5.51;68.35
9723;DHT22;4900;49.306;8.500;2023-03-05T00:17:34;5.51;68.39
9723;DHT22;4900;49.306;8.500;2023-03-05T00:19:59;5.50;68.34
9723;DHT22;4900;49.306;8.500;2023-03-05T00:22:25;5.48;68.39
9723;DHT22;4900;49.306;8.500;2023-03-05T00:24:51;5.48;68.37
9723;DHT22;4900;49.306;8.500;2023-03-05T00:27:16;5.47;68.23
9723;DHT22;4900;49.306;8.500;2023-03-05T00:29:42;5.48;68.21
9723;DHT22;4900;49.306;8.500;2023-03-05T00:32:07;5.53;68.26
9723;DHT22;4900;49.306;8.500;2023-03-05T00:34:33;5.51;68.24
9723;DHT22;4900;49.306;8.500;2023-03-05T00:37:00;5.53;68.36
9723;DHT22;4900;49.306;8.500;2023-03-05T00:39:26;5.53;68.26
9723;DHT22;4900;49.306;8.500;2023-03-05T00:41:51;5.53;68.26
9723;DHT22;4900;49.306;8.500;2023-03-05T00:44:17;5.53;68.29
9723;DHT22;4900;49.306;8.500;2023-03-05T00:46:43;5.51;68.19
9723;DHT22;4900;49.306;8.500;2023-03-05T00:49:08;5.51;68.28
9723;DHT22;4900;49.306;8.500;2023-03-05T00:51:34;5.46;68.33
9723;DHT22;4900;49.306;8.500;2023-03-05T00:54:03;5.44;68.42
9723;DHT22;4900;49.306;8.500;2023-03-05T00:56:29;5.44;68.48
9723;DHT22;4900;49.306;8.500;2023-03-05T00:58:55;5.44;68.40
9723;DHT22;4900;49.306;8.500;2023-03-05T01:01:20;5.42;68.45
9723;DHT22;4900;49.306;8.500;2023-03-05T01:03:46;5.43;68.55
9723;DHT22;4900;49.306;8.500;2023-03-05T01:06:13;5.40;68.63
9723;DHT22;4900;49.306;8.500;2023-03-05T01:08:40;5.37;68.69
9723;DHT22;4900;49.306;8.500;2023-03-05T01:11:07;5.37;68.70
9723;DHT22;4900;49.306;8.500;2023-03-05T01:13:33;5.34;68.70
9723;DHT22;4900;49.306;8.500;2023-03-05T01:15:59;5.34;68.85
9723;DHT22;4900;49.306;8.500;2023-03-05T01:18:25;5.34;68.69
9723;DHT22;4900;49.306;8.500;2023-03-05T01:20:50;5.34;68.65
9723;DHT22;4900;49.306;8.500;2023-03-05T01:23:16;5.33;68.77
9723;DHT22;4900;49.306;8.500;2023-03-05T01:25:41;5.29;68.78
9723;DHT22;4900;49.306;8.500;2023-03-05T01:28:07;5.29;68.77
9723;DHT22;4900;49.306;8.500;2023-03-05T01:30:33;5.27;68.67
9723;DHT22;4900;49.306;8.500;2023-03-05T01:32:59;5.29;68.69
9723;DHT22;4900;49.306;8.500;2023-03-05T01:35:25;5.30;68.61
9723;DHT22;4900;49.306;8.500;2023-03-05T01:37:52;5.30;68.56
9723;DHT22;4900;49.306;8.500;2023-03-05T01:40:20;5.29;68.61
9723;DHT22;4900;49.306;8.500;2023-03-05T01:43:05;5.29;68.59
9723;DHT22;4900;49.306;8.500;2023-03-05T01:45:32;5.26;68.75
9723;DHT22;4900;49.306;8.500;2023-03-05T01:47:58;5.27;68.75
9723;DHT22;4900;49.306;8.500;2023-03-05T01:50:24;5.27;68.69
9723;DHT22;4900;49.306;8.500;2023-03-05T01:52:59;5.29;68.70
9723;DHT22;4900;49.306;8.500;2023-03-05T01:55:27;5.27;68.58
9723;DHT22;4900;49.306;8.500;2023-03-05T01:58:00;5.27;68.63
9723;DHT22;4900;49.306;8.500;2023-03-05T02:00:33;5.27;68.81
9723;DHT22;4900;49.306;8.500;2023-03-05T02:03:05;5.25;68.92
9723;DHT22;4900;49.306;8.500;2023-03-05T02:05:33;5.25;68.95
9723;DHT22;4900;49.306;8.500;2023-03-05T02:08:02;5.26;68.89
9723;DHT22;4900;49.306;8.500;2023-03-05T02:10:32;5.29;68.94
9723;DHT22;4900;49.306;8.500;2023-03-05T02:13:03;5.25;68.96
9723;DHT22;4900;49.306;8.500;2023-03-05T02:15:30;5.30;68.81
9723;DHT22;4900;49.306;8.500;2023-03-05T02:17:56;5.25;68.86
9723;DHT22;4900;49.306;8.500;2023-03-05T02:20:24;5.25;68.79
9723;DHT22;4900;49.306;8.500;2023-03-05T02:22:51;5.22;68.82
9723;DHT22;4900;49.306;8.500;2023-03-05T02:25:24;5.22;68.87
9723;DHT22;4900;49.306;8.500;2023-03-05T02:28:05;5.19;68.86
9723;DHT22;4900;49.306;8.500;2023-03-05T02:30:32;5.18;68.97
9723;DHT22;4900;49.306;8.500;2023-03-05T02:32:58;5.16;68.94
9723;DHT22;4900;49.306;8.500;2023-03-05T02:35:24;5.16;69.01
9723;DHT22;4900;49.306;8.500;2023-03-05T02:37:49;5.16;68.99
9723;DHT22;4900;49.306;8.500;2023-03-05T02:40:15;5.12;69.04
9723;DHT22;4900;49.306;8.500;2023-03-05T02:42:41;5.11;69.07
9723;DHT22;4900;49.306;8.500;2023-03-05T02:45:08;5.09;69.17
9723;DHT22;4900;49.306;8.500;2023-03-05T02:47:34;5.08;69.28
9723;DHT22;4900;49.306;8.500;2023-03-05T02:50:00;5.09;69.30
9723;DHT22;4900;49.306;8.500;2023-03-05T02:52:27;5.06;69.29
9723;DHT22;4900;49.306;8.500;2023-03-05T02:54:52;5.05;69.42
9723;DHT22;4900;49.306;8.500;2023-03-05T02:57:18;5.04;69.54
9723;DHT22;4900;49.306;8.500;2023-03-05T02:59:44;5.02;69.57
9723;DHT22;4900;49.306;8.500;2023-03-05T03:02:11;5.01;69.65
9723;DHT22;4900;49.306;8.500;2023-03-05T03:04:37;5.01;69.80
9723;DHT22;4900;49.306;8.500;2023-03-05T03:07:02;5.02;69.77
9723;DHT22;4900;49.306;8.500;2023-03-05T03:09:28;5.02;69.87
9723;DHT22;4900;49.306;8.500;2023-03-05T03:11:53;4.99;69.87
9723;DHT22;4900;49.306;8.500;2023-03-05T03:14:19;5.01;69.85
9723;DHT22;4900;49.306;8.500;2023-03-05T03:16:45;5.01;69.88
9723;DHT22;4900;49.306;8.500;2023-03-05T03:19:11;5.04;69.89
9723;DHT22;4900;49.306;8.500;2023-03-05T03:21:37;5.01;69.85
9723;DHT22;4900;49.306;8.500;2023-03-05T03:24:03;4.98;69.98
9723;DHT22;4900;49.306;8.500;2023-03-05T03:26:28;5.01;69.87
9723;DHT22;4900;49.306;8.500;2023-03-05T03:28:55;4.99;69.85
9723;DHT22;4900;49.306;8.500;2023-03-05T03:31:21;4.97;69.92
9723;DHT22;4900;49.306;8.500;2023-03-05T03:33:47;4.98;69.96
9723;DHT22;4900;49.306;8.500;2023-03-05T03:36:12;4.98;69.90
9723;DHT22;4900;49.306;8.500;2023-03-05T03:38:38;4.94;69.91
9723;DHT22;4900;49.306;8.500;2023-03-05T03:41:07;4.95;69.86
9723;DHT22;4900;49.306;8.500;2023-03-05T03:43:34;4.94;69.99
9723;DHT22;4900;49.306;8.500;2023-03-05T03:45:59;4.97;69.88
9723;DHT22;4900;49.306;8.500;2023-03-05T03:48:25;4.94;69.94
9723;DHT22;4900;49.306;8.500;2023-03-05T03:50:50;4.95;70.04
9723;DHT22;4900;49.306;8.500;2023-03-05T03:53:16;4.94;69.99
9723;DHT22;4900;49.306;8.500;2023-03-05T03:55:42;4.95;70.01
9723;DHT22;4900;49.306;8.500;2023-03-05T03:58:09;4.97;70.03
9723;DHT22;4900;49.306;8.500;2023-03-05T04:00:34;4.97;70.04
9723;DHT22;4900;49.306;8.500;2023-03-05T04:03:00;4.99;69.94
9723;DHT22;4900;49.306;8.500;2023-03-05T04:05:26;5.01;70.00
9723;DHT22;4900;49.306;8.500;2023-03-05T04:07:51;4.99;69.93
9723;DHT22;4900;49.306;8.500;2023-03-05T04:10:17;5.04;69.83
9723;DHT22;4900;49.306;8.500;2023-03-05T04:12:42;5.04;69.83
9723;DHT22;4900;49.306;8.500;2023-03-05T04:15:09;5.02;69.85
9723;DHT22;4900;49.306;8.500;2023-03-05T04:17:35;5.02;69.81
9723;DHT22;4900;49.306;8.500;2023-03-05T04:20:00;5.02;70.01
9723;DHT22;4900;49.306;8.500;2023-03-05T04:22:26;5.02;70.08
9723;DHT22;4900;49.306;8.500;2023-03-05T04:24:52;5.01;70.01
9723;DHT22;4900;49.306;8.500;2023-03-05T04:27:17;5.02;69.98
9723;DHT22;4900;49.306;8.500;2023-03-05T04:29:43;5.02;70.05
9723;DHT22;4900;49.306;8.500;2023-03-05T04:32:09;4.99;70.08
9723;DHT22;4900;49.306;8.500;2023-03-05T04:34:36;5.02;70.02
9723;DHT22;4900;49.306;8.500;2023-03-05T04:37:01;5.01;69.92
9723;DHT22;4900;49.306;8.500;2023-03-05T04:39:27;4.99;70.08
9723;DHT22;4900;49.306;8.500;2023-03-05T04:41:52;4.98;70.17
9723;DHT22;4900;49.306;8.500;2023-03-05T04:44:18;4.97;70.14
9723;DHT22;4900;49.306;8.500;2023-03-05T04:46:43;4.98;70.20
9723;DHT22;4900;49.306;8.500;2023-03-05T04:49:09;4.99;70.17
9723;DHT22;4900;49.306;8.500;2023-03-05T04:51:35;4.94;70.35
9723;DHT22;4900;49.306;8.500;2023-03-05T04:54:00;4.97;70.24
9723;DHT22;4900;49.306;8.500;2023-03-05T04:56:26;4.92;70.36
9723;DHT22;4900;49.306;8.500;2023-03-05T04:58:51;4.94;70.33
9723;DHT22;4900;49.306;8.500;2023-03-05T05:01:17;4.91;70.35
9723;DHT22;4900;49.306;8.500;2023-03-05T05:03:42;4.92;70.27
9723;DHT22;4900;49.306;8.500;2023-03-05T05:06:08;4.92;70.33
9723;DHT22;4900;49.306;8.500;2023-03-05T05:08:33;4.89;70.30
9723;DHT22;4900;49.306;8.500;2023-03-05T05:11:02;4.85;70.35
9723;DHT22;4900;49.306;8.500;2023-03-05T05:13:28;4.92;70.36
9723;DHT22;4900;49.306;8.500;2023-03-05T05:15:54;4.89;70.48
9723;DHT22;4900;49.306;8.500;2023-03-05T05:18:20;4.89;70.41
9723;DHT22;4900;49.306;8.500;2023-03-05T05:20:45;4.87;70.54
9723;DHT22;4900;49.306;8.500;2023-03-05T05:23:11;4.88;70.50
9723;DHT22;4900;49.306;8.500;2023-03-05T05:25:37;4.91;70.56
9723;DHT22;4900;49.306;8.500;2023-03-05T05:28:03;4.89;70.48
9723;DHT22;4900;49.306;8.500;2023-03-05T05:30:28;4.92;70.46
9723;DHT22;4900;49.306;8.500;2023-03-05T05:32:54;4.92;70.41
9723;DHT22;4900;49.306;8.500;2023-03-05T05:35:19;4.91;70.42
9723;DHT22;4900;49.306;8.500;2023-03-05T05:37:45;4.91;70.42
9723;DHT22;4900;49.306;8.500;2023-03-05T05:40:11;4.89;70.42
9723;DHT22;4900;49.306;8.500;2023-03-05T05:42:36;4.91;70.25
9723;DHT22;4900;49.306;8.500;2023-03-05T05:45:02;4.94;70.26
9723;DHT22;4900;49.306;8.500;2023-03-05T05:47:28;4.92;70.19
9723;DHT22;4900;49.306;8.500;2023-03-05T05:49:55;4.88;70.21
9723;DHT22;4900;49.306;8.500;2023-03-05T05:52:21;4.87;70.17
9723;DHT22;4900;49.306;8.500;2023-03-05T05:54:47;4.88;70.23
9723;DHT22;4900;49.306;8.500;2023-03-05T05:57:13;4.85;70.31
9723;DHT22;4900;49.306;8.500;2023-03-05T05:59:38;4.85;70.31
9723;DHT22;4900;49.306;8.500;2023-03-05T06:02:05;4.85;70.35
9723;DHT22;4900;49.306;8.500;2023-03-05T06:04:33;4.85;70.35
9723;DHT22;4900;49.306;8.500;2023-03-05T06:06:58;4.84;70.40
9723;DHT22;4900;49.306;8.500;2023-03-05T06:09:25;4.83;70.40
9723;DHT22;4900;49.306;8.500;2023-03-05T06:11:50;4.84;70.46
9723;DHT22;4900;49.306;8.500;2023-03-05T06:14:16;4.83;70.51
9723;DHT22;4900;49.306;8.500;2023-03-05T06:16:42;4.83;70.58
9723;DHT22;4900;49.306;8.500;2023-03-05T06:19:08;4.83;70.67
9723;DHT22;4900;49.306;8.500;2023-03-05T06:21:35;4.83;70.65
9723;DHT22;4900;49.306;8.500;2023-03-05T06:24:01;4.84;70.63
9723;DHT22;4900;49.306;8.500;2023-03-05T06:26:26;4.87;70.67
9723;DHT22;4900;49.306;8.500;2023-03-05T06:28:52;4.84;70.58
9723;DHT22;4900;49.306;8.500;2023-03-05T06:31:23;4.81;70.85
9723;DHT22;4900;49.306;8.500;2023-03-05T06:33:53;4.85;70.71
9723;DHT22;4900;49.306;8.500;2023-03-05T06:36:21;4.83;70.82
9723;DHT22;4900;49.306;8.500;2023-03-05T06:38:47;4.83;70.87
9723;DHT22;4900;49.306;8.500;2023-03-05T06:41:15;4.83;70.85
9723;DHT22;4900;49.306;8.500;2023-03-05T06:43:43;4.89;70.70
9723;DHT22;4900;49.306;8.500;2023-03-05T06:46:20;4.89;70.60
9723;DHT22;4900;49.306;8.500;2023-03-05T06:48:46;4.89;70.70
9723;DHT22;4900;49.306;8.500;2023-03-05T06:51:21;4.91;70.65
9723;DHT22;4900;49.306;8.500;2023-03-05T06:53:47;4.89;70.71
9723;DHT22;4900;49.306;8.500;2023-03-05T06:56:14;4.92;70.69
9723;DHT22;4900;49.306;8.500;2023-03-05T06:58:42;4.89;70.84
9723;DHT22;4900;49.306;8.500;2023-03-05T07:01:08;4.92;70.84
9723;DHT22;4900;49.306;8.500;2023-03-05T07:03:34;4.91;71.07
9723;DHT22;4900;49.306;8.500;2023-03-05T07:06:09;4.91;71.18
9723;DHT22;4900;49.306;8.500;2023-03-05T07:08:35;4.98;71.09
9723;DHT22;4900;49.306;8.500;2023-03-05T07:11:01;4.97;71.16
9723;DHT22;4900;49.306;8.500;2023-03-05T07:13:27;5.01;71.06
9723;DHT22;4900;49.306;8.500;2023-03-05T07:15:53;5.04;71.07
9723;DHT22;4900;49.306;8.500;2023-03-05T07:18:19;5.06;70.93
9723;DHT22;4900;49.306;8.500;2023-03-05T07:20:45;5.11;70.77
9723;DHT22;4900;49.306;8.500;2023-03-05T07:23:10;5.20;70.58
9723;DHT22;4900;49.306;8.500;2023-03-05T07:25:36;5.26;70.37
9723;DHT22;4900;49.306;8.500;2023-03-05T07:28:03;5.30;70.32
9723;DHT22;4900;49.306;8.500;2023-03-05T07:30:30;5.39;70.13
9723;DHT22;4900;49.306;8.500;2023-03-05T07:32:55;5.50;69.91
9723;DHT22;4900;49.306;8.500;2023-03-05T07:35:21;5.53;69.76
9723;DHT22;4900;49.306;8.500;2023-03-05T07:37:48;5.60;69.66
9723;DHT22;4900;49.306;8.500;2023-03-05T07:40:13;5.66;69.64
9723;DHT22;4900;49.306;8.500;2023-03-05T07:42:39;5.75;69.47
9723;DHT22;4900;49.306;8.500;2023-03-05T07:45:05;5.84;69.37
9723;DHT22;4900;49.306;8.500;2023-03-05T07:47:31;5.97;69.09
9723;DHT22;4900;49.306;8.500;2023-03-05T07:49:56;6.09;68.90
9723;DHT22;4900;49.306;8.500;2023-03-05T07:52:22;6.22;68.64
9723;DHT22;4900;49.306;8.500;2023-03-05T07:54:47;6.41;68.31
9723;DHT22;4900;49.306;8.500;2023-03-05T07:57:13;6.58;68.05
9723;DHT22;4900;49.306;8.500;2023-03-05T07:59:39;6.74;67.74
9723;DHT22;4900;49.306;8.500;2023-03-05T08:02:05;6.87;67.39
9723;DHT22;4900;49.306;8.500;2023-03-05T08:04:31;7.05;66.88
9723;DHT22;4900;49.306;8.500;2023-03-05T08:06:58;7.20;66.63
9723;DHT22;4900;49.306;8.500;2023-03-05T08:09:24;7.44;66.33
9723;DHT22;4900;49.306;8.500;2023-03-05T08:11:49;7.55;65.83
9723;DHT22;4900;49.306;8.500;2023-03-05T08:14:15;7.78;65.45
9723;DHT22;4900;49.306;8.500;2023-03-05T08:16:40;7.92;65.09
9723;DHT22;4900;49.306;8.500;2023-03-05T08:19:06;8.02;64.67
9723;DHT22;4900;49.306;8.500;2023-03-05T08:21:34;8.09;64.25
9723;DHT22;4900;49.306;8.500;2023-03-05T08:24:02;8.27;64.01
9723;DHT22;4900;49.306;8.500;2023-03-05T08:26:30;8.42;63.62
9723;DHT22;4900;49.306;8.500;2023-03-05T08:28:56;8.54;63.29
9723;DHT22;4900;49.306;8.500;2023-03-05T08:31:23;8.68;62.78
9723;DHT22;4900;49.306;8.500;2023-03-05T08:33:50;8.76;62.59
9723;DHT22;4900;49.306;8.500;2023-03-05T08:36:16;8.88;62.32
9723;DHT22;4900;49.306;8.500;2023-03-05T08:38:42;8.86;62.46
9723;DHT22;4900;49.306;8.500;2023-03-05T08:41:09;9.17;62.28
9723;DHT22;4900;49.306;8.500;2023-03-05T08:43:35;9.18;61.41
9723;DHT22;4900;49.306;8.500;2023-03-05T08:46:02;9.28;60.99
9723;DHT22;4900;49.306;8.500;2023-03-05T08:48:28;9.35;60.82
9723;DHT22;4900;49.306;8.500;2023-03-05T08:50:54;9.35;60.66
9723;DHT22;4900;49.306;8.500;2023-03-05T08:53:21;9.30;60.83
9723;DHT22;4900;49.306;8.500;2023-03-05T08:55:56;9.28;60.49
9723;DHT22;4900;49.306;8.500;2023-03-05T08:58:22;9.42;60.41
9723;DHT22;4900;49.306;8.500;2023-03-05T09:00:49;9.42;60.30
9723;DHT22;4900;49.306;8.500;2023-03-05T09:03:15;9.55;60.25
9723;DHT22;4900;49.306;8.500;2023-03-05T09:05:40;9.49;60.15
9723;DHT22;4900;49.306;8.500;2023-03-05T09:08:06;9.78;59.75
9723;DHT22;4900;49.306;8.500;2023-03-05T09:10:31;9.79;59.60
9723;DHT22;4900;49.306;8.500;2023-03-05T09:12:57;9.90;59.33
9723;DHT22;4900;49.306;8.500;2023-03-05T09:15:23;9.78;59.35
9723;DHT22;4900;49.306;8.500;2023-03-05T09:17:48;9.89;58.78
9723;DHT22;4900;49.306;8.500;2023-03-05T09:20:14;9.78;58.75
9723;DHT22;4900;49.306;8.500;2023-03-05T09:22:40;9.80;58.54
9723;DHT22;4900;49.306;8.500;2023-03-05T09:25:07;9.86;58.62
9723;DHT22;4900;49.306;8.500;2023-03-05T09:27:34;9.70;58.27
9723;DHT22;4900;49.306;8.500;2023-03-05T09:30:00;9.80;58.26
9723;DHT22;4900;49.306;8.500;2023-03-05T09:32:25;9.82;58.04
9723;DHT22;4900;49.306;8.500;2023-03-05T09:34:51;9.85;57.74
9723;DHT22;4900;49.306;8.500;2023-03-05T09:37:16;9.91;57.64
9723;DHT22;4900;49.306;8.500;2023-03-05T09:39:42;9.94;57.24
9723;DHT22;4900;49.306;8.500;2023-03-05T09:45:27;9.83;55.75
9723;DHT22;4900;49.306;8.500;2023-03-05T09:48:18;9.74;54.82
9723;DHT22;4900;49.306;8.500;2023-03-05T09:51:24;9.74;55.43
9723;DHT22;4900;49.306;8.500;2023-03-05T09:54:22;9.70;55.31
9723;DHT22;4900;49.306;8.500;2023-03-05T09:56:58;9.63;55.52
9723;DHT22;4900;49.306;8.500;2023-03-05T09:59:32;9.59;55.35
9723;DHT22;4900;49.306;8.500;2023-03-05T10:02:12;9.44;55.38
9723;DHT22;4900;49.306;8.500;2023-03-05T10:04:59;9.36;55.55
9723;DHT22;4900;49.306;8.500;2023-03-05T10:07:31;9.23;55.41
9723;DHT22;4900;49.306;8.500;2023-03-05T10:10:03;9.21;55.83
9723;DHT22;4900;49.306;8.500;2023-03-05T10:12:45;9.14;56.16
9723;DHT22;4900;49.306;8.500;2023-03-05T10:20:29;9.30;56.23
9723;DHT22;4900;49.306;8.500;2023-03-05T10:31:45;9.52;56.11
9723;DHT22;4900;49.306;8.500;2023-03-05T10:34:47;9.52;55.98
9723;DHT22;4900;49.306;8.500;2023-03-05T10:40:29;9.61;55.72
9723;DHT22;4900;49.306;8.500;2023-03-05T10:45:52;9.53;55.27
9723;DHT22;4900;49.306;8.500;2023-03-05T10:51:27;9.52;54.42
9723;DHT22;4900;49.306;8.500;2023-03-05T10:54:04;9.46;54.17
9723;DHT22;4900;49.306;8.500;2023-03-05T10:56:33;9.41;53.99
9723;DHT22;4900;49.306;8.500;2023-03-05T10:58:58;9.38;53.79
9723;DHT22;4900;49.306;8.500;2023-03-05T11:01:27;9.36;53.24
9723;DHT22;4900;49.306;8.500;2023-03-05T11:04:00;9.44;53.00
9723;DHT22;4900;49.306;8.500;2023-03-05T11:09:20;9.32;52.92
9723;DHT22;4900;49.306;8.500;2023-03-05T11:12:05;9.30;53.05
9723;DHT22;4900;49.306;8.500;2023-03-05T11:14:37;9.27;53.14
9723;DHT22;4900;49.306;8.500;2023-03-05T11:17:27;9.35;53.43
9723;DHT22;4900;49.306;8.500;2023-03-05T11:19:55;9.23;53.08
9723;DHT22;4900;49.306;8.500;2023-03-05T11:22:23;9.36;53.27
9723;DHT22;4900;49.306;8.500;2023-03-05T11:25:13;9.48;53.41
9723;DHT22;4900;49.306;8.500;2023-03-05T11:27:56;9.48;53.19
9723;DHT22;4900;49.306;8.500;2023-03-05T11:30:27;9.51;53.49
9723;DHT22;4900;49.306;8.500;2023-03-05T11:33:14;9.32;53.25
9723;DHT22;4900;49.306;8.500;2023-03-05T11:35:41;9.45;53.44
9723;DHT22;4900;49.306;8.500;2023-03-05T11:38:22;9.48;53.46
9723;DHT22;4900;49.306;8.500;2023-03-05T11:40:55;9.49;53.23
9723;DHT22;4900;49.306;8.500;2023-03-05T11:43:23;9.53;53.38
9723;DHT22;4900;49.306;8.500;2023-03-05T11:45:53;9.66;53.28
9723;DHT22;4900;49.306;8.500;2023-03-05T11:48:29;9.66;52.98
9723;DHT22;4900;49.306;8.500;2023-03-05T11:51:01;9.65;52.68
9723;DHT22;4900;49.306;8.500;2023-03-05T11:53:33;9.76;52.81
9723;DHT22;4900;49.306;8.500;2023-03-05T11:56:13;9.94;52.54
9723;DHT22;4900;49.306;8.500;2023-03-05T11:58:49;9.90;52.18
9723;DHT22;4900;49.306;8.500;2023-03-05T12:01:27;10.00;51.65
9723;DHT22;4900;49.306;8.500;2023-03-05T12:03:53;9.96;51.57
9723;DHT22;4900;49.306;8.500;2023-03-05T12:08:53;10.11;51.06
9723;DHT22;4900;49.306;8.500;2023-03-05T12:11:24;10.39;51.31
9723;DHT22;4900;49.306;8.500;2023-03-05T12:14:13;10.44;51.32
9723;DHT22;4900;49.306;8.500;2023-03-05T12:16:49;10.55;50.95
9723;DHT22;4900;49.306;8.500;2023-03-05T12:19:37;10.59;50.57
9723;DHT22;4900;49.306;8.500;2023-03-05T12:22:18;10.75;50.62
9723;DHT22;4900;49.306;8.500;2023-03-05T12:24:45;10.81;50.62
9723;DHT22;4900;49.306;8.500;2023-03-05T12:27:13;10.81;50.69
9723;DHT22;4900;49.306;8.500;2023-03-05T12:29:49;10.83;50.69
9723;DHT22;4900;49.306;8.500;2023-03-05T12:35:04;10.79;50.71
9723;DHT22;4900;49.306;8.500;2023-03-05T12:40:19;10.86;50.71
9723;DHT22;4900;49.306;8.500;2023-03-05T12:42:56;10.86;50.54
9723;DHT22;4900;49.306;8.500;2023-03-05T12:45:31;10.93;50.33
9723;DHT22;4900;49.306;8.500;2023-03-05T12:50:46;10.97;50.04
9723;DHT22;4900;49.306;8.500;2023-03-05T12:53:15;10.89;49.56
9723;DHT22;4900;49.306;8.500;2023-03-05T13:00:58;10.84;49.70
9723;DHT22;4900;49.306;8.500;2023-03-05T13:03:30;10.76;49.94
9723;DHT22;4900;49.306;8.500;2023-03-05T13:05:58;10.80;49.47
9723;DHT22;4900;49.306;8.500;2023-03-05T13:08:32;10.76;49.68
9723;DHT22;4900;49.306;8.500;2023-03-05T13:11:10;10.79;49.72
9723;DHT22;4900;49.306;8.500;2023-03-05T13:13:42;10.77;49.64
9723;DHT22;4900;49.306;8.500;2023-03-05T13:16:17;10.77;49.22
9723;DHT22;4900;49.306;8.500;2023-03-05T13:18:46;10.66;47.99
9723;DHT22;4900;49.306;8.500;2023-03-05T13:21:14;10.56;48.12
9723;DHT22;4900;49.306;8.500;2023-03-05T13:23:49;10.50;47.94
9723;DHT22;4900;49.306;8.500;2023-03-05T13:26:26;10.29;47.86
9723;DHT22;4900;49.306;8.500;2023-03-05T13:29:11;10.14;47.90
9723;DHT22;4900;49.306;8.500;2023-03-05T13:31:45;10.10;47.83
9723;DHT22;4900;49.306;8.500;2023-03-05T13:36:45;10.04;48.31
9723;DHT22;4900;49.306;8.500;2023-03-05T13:39:24;10.03;48.46
9723;DHT22;4900;49.306;8.500;2023-03-05T13:42:14;9.93;48.39
9723;DHT22;4900;49.306;8.500;2023-03-05T13:44:41;9.85;48.79
9723;DHT22;4900;49.306;8.500;2023-03-05T13:47:18;9.59;49.22
9723;DHT22;4900;49.306;8.500;2023-03-05T13:49:45;9.62;49.25
9723;DHT22;4900;49.306;8.500;2023-03-05T13:52:22;9.49;49.30
9723;DHT22;4900;49.306;8.500;2023-03-05T13:54:49;9.44;49.46
9723;DHT22;4900;49.306;8.500;2023-03-05T14:02:52;9.18;50.18
9723;DHT22;4900;49.306;8.500;2023-03-05T14:05:18;9.07;50.35
9723;DHT22;4900;49.306;8.500;2023-03-05T14:07:48;9.04;50.60
9723;DHT22;4900;49.306;8.500;2023-03-05T14:10:32;9.00;50.71
9723;DHT22;4900;49.306;8.500;2023-03-05T14:13:00;8.79;50.82
9723;DHT22;4900;49.306;8.500;2023-03-05T14:15:28;8.79;51.34
9723;DHT22;4900;49.306;8.500;2023-03-05T14:20:33;8.66;51.32
9723;DHT22;4900;49.306;8.500;2023-03-05T14:23:00;8.65;51.34
9723;DHT22;4900;49.306;8.500;2023-03-05T14:25:37;8.66;51.62
9723;DHT22;4900;49.306;8.500;2023-03-05T14:30:45;8.65;51.90
9723;DHT22;4900;49.306;8.500;2023-03-05T14:33:11;8.65;51.92
9723;DHT22;4900;49.306;8.500;2023-03-05T14:35:36;8.72;51.93
9723;DHT22;4900;49.306;8.500;2023-03-05T14:38:02;8.73;51.89
9723;DHT22;4900;49.306;8.500;2023-03-05T14:40:33;8.73;51.85
9723;DHT22;4900;49.306;8.500;2023-03-05T14:43:04;8.80;51.84
9723;DHT22;4900;49.306;8.500;2023-03-05T14:45:37;8.85;51.82
9723;DHT22;4900;49.306;8.500;2023-03-05T14:48:05;8.85;51.96
9723;DHT22;4900;49.306;8.500;2023-03-05T14:50:42;8.77;51.90
9723;DHT22;4900;49.306;8.500;2023-03-05T14:53:30;8.73;52.16
9723;DHT22;4900;49.306;8.500;2023-03-05T14:55:59;8.68;52.46
9723;DHT22;4900;49.306;8.500;2023-03-05T14:58:30;8.59;52.56
9723;DHT22;4900;49.306;8.500;2023-03-05T15:00:57;8.62;52.66
9723;DHT22;4900;49.306;8.500;2023-03-05T15:03:23;8.55;52.87
9723;DHT22;4900;49.306;8.500;2023-03-05T15:05:52;8.52;53.06
9723;DHT22;4900;49.306;8.500;2023-03-05T15:08:27;8.45;53.39
9723;DHT22;4900;49.306;8.500;2023-03-05T15:10:53;8.45;53.51
9723;DHT22;4900;49.306;8.500;2023-03-05T15:13:19;8.38;53.68
9723;DHT22;4900;49.306;8.500;2023-03-05T15:15:46;8.33;53.83
9723;DHT22;4900;49.306;8.500;2023-03-05T15:18:14;8.31;54.05
9723;DHT22;4900;49.306;8.500;2023-03-05T15:20:40;8.26;54.38
9723;DHT22;4900;49.306;8.500;2023-03-05T15:23:06;8.28;54.31
9723;DHT22;4900;49.306;8.500;2023-03-05T15:25:32;8.28;54.47
9723;DHT22;4900;49.306;8.500;2023-03-05T15:27:57;8.21;54.54
9723;DHT22;4900;49.306;8.500;2023-03-05T15:32:52;8.10;54.97
9723;DHT22;4900;49.306;8.500;2023-03-05T15:35:19;8.14;54.95
9723;DHT22;4900;49.306;8.500;2023-03-05T15:37:44;8.10;54.95
9723;DHT22;4900;49.306;8.500;2023-03-05T15:40:10;8.10;55.04
9723;DHT22;4900;49.306;8.500;2023-03-05T15:42:36;8.07;55.20
9723;DHT22;4900;49.306;8.500;2023-03-05T15:45:02;8.07;55.12
9723;DHT22;4900;49.306;8.500;2023-03-05T15:47:28;8.05;55.28
9723;DHT22;4900;49.306;8.500;2023-03-05T15:49:53;8.05;55.17
9723;DHT22;4900;49.306;8.500;2023-03-05T15:52:19;8.06;55.13
9723;DHT22;4900;49.306;8.500;2023-03-05T15:54:45;8.05;55.18
9723;DHT22;4900;49.306;8.500;2023-03-05T15:57:11;8.03;55.30
9723;DHT22;4900;49.306;8.500;2023-03-05T15:59:37;8.05;55.16
9723;DHT22;4900;49.306;8.500;2023-03-05T16:02:03;8.06;55.34
9723;DHT22;4900;49.306;8.500;2023-03-05T16:04:29;7.99;55.37
9723;DHT22;4900;49.306;8.500;2023-03-05T16:06:54;7.96;55.54
9723;DHT22;4900;49.306;8.500;2023-03-05T16:09:25;7.96;55.47
9723;DHT22;4900;49.306;8.500;2023-03-05T16:11:53;7.92;55.61
9723;DHT22;4900;49.306;8.500;2023-03-05T16:14:22;7.88;55.79
9723;DHT22;4900;49.306;8.500;2023-03-05T16:16:49;7.85;55.83
9723;DHT22;4900;49.306;8.500;2023-03-05T16:19:17;7.78;55.58
9723;DHT22;4900;49.306;8.500;2023-03-05T16:21:43;7.77;55.72
9723;DHT22;4900;49.306;8.500;2023-03-05T16:24:09;7.72;55.63
9723;DHT22;4900;49.306;8.500;2023-03-05T16:26:36;7.63;55.88
9723;DHT22;4900;49.306;8.500;2023-03-05T16:29:03;7.61;56.15
9723;DHT22;4900;49.306;8.500;2023-03-05T16:31:33;7.54;56.18
9723;DHT22;4900;49.306;8.500;2023-03-05T16:33:59;7.54;56.23
9723;DHT22;4900;49.306;8.500;2023-03-05T16:36:30;7.48;56.31
9723;DHT22;4900;49.306;8.500;2023-03-05T16:39:01;7.43;56.50
9723;DHT22;4900;49.306;8.500;2023-03-05T16:41:26;7.41;56.48
9723;DHT22;4900;49.306;8.500;2023-03-05T16:43:54;7.43;56.55
9723;DHT22;4900;49.306;8.500;2023-03-05T16:46:22;7.38;56.42
9723;DHT22;4900;49.306;8.500;2023-03-05T16:48:47;7.34;56.49
9723;DHT22;4900;49.306;8.500;2023-03-05T16:51:13;7.31;56.47
9723;DHT22;4900;49.306;8.500;2023-03-05T16:53:39;7.27;56.70
9723;DHT22;4900;49.306;8.500;2023-03-05T16:56:06;7.20;56.77
9723;DHT22;4900;49.306;8.500;2023-03-05T16:58:33;7.16;56.88
9723;DHT22;4900;49.306;8.500;2023-03-05T17:00:59;7.12;57.11
9723;DHT22;4900;49.306;8.500;2023-03-05T17:03:25;7.10;57.20
9723;DHT22;4900;49.306;8.500;2023-03-05T17:05:52;7.06;57.30
9723;DHT22;4900;49.306;8.500;2023-03-05T17:08:18;7.00;57.44
9723;DHT22;4900;49.306;8.500;2023-03-05T17:10:44;6.98;57.59
9723;DHT22;4900;49.306;8.500;2023-03-05T17:13:10;6.92;57.65
9723;DHT22;4900;49.306;8.500;2023-03-05T17:15:35;6.87;57.88
9723;DHT22;4900;49.306;8.500;2023-03-05T17:18:01;6.87;57.94
9723;DHT22;4900;49.306;8.500;2023-03-05T17:20:27;6.81;58.07
9723;DHT22;4900;49.306;8.500;2023-03-05T17:22:53;6.77;58.07
9723;DHT22;4900;49.306;8.500;2023-03-05T17:25:18;6.71;58.29